sensor_id;sensor_type;location;lat;lon;timestamp;P1;durP1;ratioP1;P2;durP2;ratioP2
41275;SDS011;27010;47.718;12.912;2023-02-28T00:02:55;5.53;;;4.17;;
41275;SDS011;27010;47.718;12.912;2023-02-28T00:05:58;5.70;;;3.97;;
41275;SDS011;27010;47.718;12.912;2023-02-28T00:09:00;5.60;;;4.20;;
41275;SDS011;27010;47.718;12.912;2023-02-28T00:12:02;5.23;;;4.13;;
41275;SDS011;27010;47.718;12.912;2023-02-28T00:15:11;5.87;;;3.57;;
41275;SDS011;27010;47.718;12.912;2023-02-28T00:18:13;4.27;;;3.57;;
41275;SDS011;27010;47.718;12.912;2023-02-28T00:21:16;4.90;;;3.53;;
41275;SDS011;27010;47.718;12.912;2023-02-28T00:24:19;6.67;;;4.13;;
41275;SDS011;27010;47.718;12.912;2023-02-28T00:27:21;6.30;;;4.30;;
41275;SDS011;27010;47.718;12.912;2023-02-28T00:30:23;7.93;;;4.37;;
41275;SDS011;27010;47.718;12.912;2023-02-28T00:33:26;5.40;;;4.53;;
41275;SDS011;27010;47.718;12.912;2023-02-28T00:36:29;5.17;;;4.03;;
41275;SDS011;27010;47.718;12.912;2023-02-28T00:39:31;5.70;;;4.20;;
41275;SDS011;27010;47.718;12.912;2023-02-28T00:42:35;7.70;;;4.57;;
41275;SDS011;27010;47.718;12.912;2023-02-28T00:45:37;5.13;;;3.70;;
41275;SDS011;27010;47.718;12.912;2023-02-28T00:48:39;4.83;;;4.27;;
41275;SDS011;27010;47.718;12.912;2023-02-28T00:51:41;8.73;;;4.67;;
41275;SDS011;27010;47.718;12.912;2023-02-28T00:54:43;5.87;;;4.63;;
41275;SDS011;27010;47.718;12.912;2023-02-28T00:57:46;8.77;;;4.23;;
41275;SDS011;27010;47.718;12.912;2023-02-28T01:00:47;8.27;;;4.63;;
41275;SDS011;27010;47.718;12.912;2023-02-28T01:03:50;6.40;;;4.60;;
41275;SDS011;27010;47.718;12.912;2023-02-28T01:06:52;9.27;;;5.43;;
41275;SDS011;27010;47.718;12.912;2023-02-28T01:09:55;7.80;;;4.73;;
41275;SDS011;27010;47.718;12.912;2023-02-28T01:12:57;6.17;;;4.87;;
41275;SDS011;27010;47.718;12.912;2023-02-28T01:15:59;8.43;;;3.93;;
41275;SDS011;27010;47.718;12.912;2023-02-28T01:19:01;9.57;;;3.60;;
41275;SDS011;27010;47.718;12.912;2023-02-28T01:22:04;6.10;;;4.40;;
41275;SDS011;27010;47.718;12.912;2023-02-28T01:25:07;5.50;;;4.30;;
41275;SDS011;27010;47.718;12.912;2023-02-28T01:28:10;4.43;;;3.47;;
41275;SDS011;27010;47.718;12.912;2023-02-28T01:31:12;6.67;;;4.03;;
41275;SDS011;27010;47.718;12.912;2023-02-28T01:34:15;5.97;;;4.20;;
41275;SDS011;27010;47.718;12.912;2023-02-28T01:37:16;7.87;;;4.43;;
41275;SDS011;27010;47.718;12.912;2023-02-28T01:40:19;6.80;;;4.03;;
41275;SDS011;27010;47.718;12.912;2023-02-28T01:43:25;6.43;;;4.60;;
41275;SDS011;27010;47.718;12.912;2023-02-28T01:46:30;6.93;;;4.23;;
41275;SDS011;27010;47.718;12.912;2023-02-28T01:49:36;6.43;;;4.33;;
41275;SDS011;27010;47.718;12.912;2023-02-28T01:52:38;9.00;;;4.40;;
41275;SDS011;27010;47.718;12.912;2023-02-28T01:55:40;7.07;;;4.93;;
41275;SDS011;27010;47.718;12.912;2023-02-28T01:58:44;7.30;;;4.73;;
41275;SDS011;27010;47.718;12.912;2023-02-28T02:01:46;6.10;;;4.93;;
41275;SDS011;27010;47.718;12.912;2023-02-28T02:05:03;6.87;;;4.53;;
41275;SDS011;27010;47.718;12.912;2023-02-28T02:08:11;7.03;;;5.03;;
41275;SDS011;27010;47.718;12.912;2023-02-28T02:11:15;6.20;;;4.90;;
41275;SDS011;27010;47.718;12.912;2023-02-28T02:17:34;6.17;;;4.53;;
41275;SDS011;27010;47.718;12.912;2023-02-28T02:38:57;7.20;;;4.63;;
41275;SDS011;27010;47.718;12.912;2023-02-28T02:42:16;8.10;;;4.03;;
41275;SDS011;27010;47.718;12.912;2023-02-28T02:45:45;7.17;;;4.50;;
41275;SDS011;27010;47.718;12.912;2023-02-28T02:48:49;6.20;;;4.40;;
41275;SDS011;27010;47.718;12.912;2023-02-28T02:51:54;7.23;;;4.83;;
41275;SDS011;27010;47.718;12.912;2023-02-28T02:54:56;7.90;;;4.43;;
41275;SDS011;27010;47.718;12.912;2023-02-28T02:58:01;6.63;;;4.57;;
41275;SDS011;27010;47.718;12.912;2023-02-28T03:01:05;8.43;;;4.77;;
41275;SDS011;27010;47.718;12.912;2023-02-28T03:04:15;10.53;;;5.20;;
41275;SDS011;27010;47.718;12.912;2023-02-28T03:07:18;6.60;;;4.67;;
41275;SDS011;27010;47.718;12.912;2023-02-28T03:13:42;5.97;;;4.00;;
41275;SDS011;27010;47.718;12.912;2023-02-28T03:28:17;8.07;;;4.50;;
41275;SDS011;27010;47.718;12.912;2023-02-28T03:34:34;5.73;;;4.50;;
41275;SDS011;27010;47.718;12.912;2023-02-28T03:42:11;5.17;;;4.00;;
41275;SDS011;27010;47.718;12.912;2023-02-28T03:45:20;5.57;;;3.83;;
41275;SDS011;27010;47.718;12.912;2023-02-28T03:48:27;5.90;;;4.13;;
41275;SDS011;27010;47.718;12.912;2023-02-28T03:51:33;8.17;;;4.40;;
41275;SDS011;27010;47.718;12.912;2023-02-28T03:54:41;6.90;;;4.33;;
41275;SDS011;27010;47.718;12.912;2023-02-28T03:58:13;7.70;;;4.80;;
41275;SDS011;27010;47.718;12.912;2023-02-28T04:01:44;6.70;;;4.60;;
41275;SDS011;27010;47.718;12.912;2023-02-28T04:04:47;8.37;;;4.83;;
41275;SDS011;27010;47.718;12.912;2023-02-28T04:07:50;5.40;;;3.83;;
41275;SDS011;27010;47.718;12.912;2023-02-28T04:10:58;6.83;;;4.20;;
41275;SDS011;27010;47.718;12.912;2023-02-28T04:14:20;5.43;;;4.03;;
41275;SDS011;27010;47.718;12.912;2023-02-28T04:17:22;6.80;;;4.13;;
41275;SDS011;27010;47.718;12.912;2023-02-28T04:20:23;6.93;;;4.10;;
41275;SDS011;27010;47.718;12.912;2023-02-28T04:23:25;6.33;;;4.20;;
41275;SDS011;27010;47.718;12.912;2023-02-28T04:26:28;6.83;;;4.20;;
41275;SDS011;27010;47.718;12.912;2023-02-28T04:29:32;7.03;;;4.20;;
41275;SDS011;27010;47.718;12.912;2023-02-28T04:32:34;9.43;;;4.47;;
41275;SDS011;27010;47.718;12.912;2023-02-28T04:35:36;7.43;;;4.57;;
41275;SDS011;27010;47.718;12.912;2023-02-28T04:38:38;5.83;;;3.70;;
41275;SDS011;27010;47.718;12.912;2023-02-28T04:41:40;10.93;;;5.10;;
41275;SDS011;27010;47.718;12.912;2023-02-28T04:44:42;8.90;;;4.67;;
41275;SDS011;27010;47.718;12.912;2023-02-28T04:47:45;7.23;;;4.50;;
41275;SDS011;27010;47.718;12.912;2023-02-28T04:50:47;7.37;;;5.07;;
41275;SDS011;27010;47.718;12.912;2023-02-28T04:53:49;6.17;;;4.10;;
41275;SDS011;27010;47.718;12.912;2023-02-28T04:56:51;5.63;;;3.90;;
41275;SDS011;27010;47.718;12.912;2023-02-28T04:59:53;6.87;;;4.40;;
41275;SDS011;27010;47.718;12.912;2023-02-28T05:02:55;6.37;;;4.60;;
41275;SDS011;27010;47.718;12.912;2023-02-28T05:05:57;6.43;;;4.00;;
41275;SDS011;27010;47.718;12.912;2023-02-28T05:08:59;6.40;;;4.20;;
41275;SDS011;27010;47.718;12.912;2023-02-28T05:12:01;7.07;;;4.50;;
41275;SDS011;27010;47.718;12.912;2023-02-28T05:15:03;12.53;;;6.27;;
41275;SDS011;27010;47.718;12.912;2023-02-28T05:18:07;6.93;;;4.60;;
41275;SDS011;27010;47.718;12.912;2023-02-28T05:24:34;12.77;;;5.77;;
41275;SDS011;27010;47.718;12.912;2023-02-28T05:27:36;9.47;;;6.20;;
41275;SDS011;27010;47.718;12.912;2023-02-28T05:30:39;15.27;;;7.73;;
41275;SDS011;27010;47.718;12.912;2023-02-28T05:33:41;8.80;;;4.90;;
41275;SDS011;27010;47.718;12.912;2023-02-28T05:36:43;7.63;;;4.53;;
41275;SDS011;27010;47.718;12.912;2023-02-28T05:39:45;6.30;;;4.40;;
41275;SDS011;27010;47.718;12.912;2023-02-28T05:42:47;5.90;;;4.00;;
41275;SDS011;27010;47.718;12.912;2023-02-28T05:45:50;12.17;;;4.43;;
41275;SDS011;27010;47.718;12.912;2023-02-28T05:48:52;6.90;;;4.83;;
41275;SDS011;27010;47.718;12.912;2023-02-28T05:51:54;6.77;;;4.50;;
41275;SDS011;27010;47.718;12.912;2023-02-28T05:54:56;7.30;;;4.40;;
41275;SDS011;27010;47.718;12.912;2023-02-28T05:57:58;7.20;;;4.90;;
41275;SDS011;27010;47.718;12.912;2023-02-28T06:01:01;6.83;;;4.37;;
41275;SDS011;27010;47.718;12.912;2023-02-28T06:04:21;8.93;;;4.20;;
41275;SDS011;27010;47.718;12.912;2023-02-28T06:07:32;10.70;;;5.07;;
41275;SDS011;27010;47.718;12.912;2023-02-28T06:10:34;7.23;;;4.00;;
41275;SDS011;27010;47.718;12.912;2023-02-28T06:13:36;8.60;;;4.40;;
41275;SDS011;27010;47.718;12.912;2023-02-28T06:16:38;5.93;;;4.10;;
41275;SDS011;27010;47.718;12.912;2023-02-28T06:19:40;7.33;;;4.20;;
41275;SDS011;27010;47.718;12.912;2023-02-28T06:22:42;11.00;;;3.80;;
41275;SDS011;27010;47.718;12.912;2023-02-28T06:25:45;6.70;;;3.80;;
41275;SDS011;27010;47.718;12.912;2023-02-28T06:28:48;7.67;;;4.30;;
41275;SDS011;27010;47.718;12.912;2023-02-28T06:31:49;7.03;;;3.80;;
41275;SDS011;27010;47.718;12.912;2023-02-28T06:34:52;7.87;;;4.10;;
41275;SDS011;27010;47.718;12.912;2023-02-28T06:37:54;7.23;;;4.33;;
41275;SDS011;27010;47.718;12.912;2023-02-28T06:40:57;8.00;;;3.90;;
41275;SDS011;27010;47.718;12.912;2023-02-28T06:44:00;5.87;;;3.67;;
41275;SDS011;27010;47.718;12.912;2023-02-28T06:47:03;7.57;;;4.37;;
41275;SDS011;27010;47.718;12.912;2023-02-28T06:50:07;6.47;;;4.33;;
41275;SDS011;27010;47.718;12.912;2023-02-28T06:53:11;9.57;;;4.53;;
41275;SDS011;27010;47.718;12.912;2023-02-28T06:56:13;6.37;;;4.53;;
41275;SDS011;27010;47.718;12.912;2023-02-28T06:59:17;7.70;;;3.83;;
41275;SDS011;27010;47.718;12.912;2023-02-28T07:02:18;9.37;;;3.93;;
41275;SDS011;27010;47.718;12.912;2023-02-28T07:05:20;6.97;;;4.10;;
41275;SDS011;27010;47.718;12.912;2023-02-28T07:08:23;11.53;;;4.80;;
41275;SDS011;27010;47.718;12.912;2023-02-28T07:11:26;6.17;;;3.67;;
41275;SDS011;27010;47.718;12.912;2023-02-28T07:14:30;7.10;;;3.57;;
41275;SDS011;27010;47.718;12.912;2023-02-28T07:17:32;7.17;;;3.67;;
41275;SDS011;27010;47.718;12.912;2023-02-28T07:20:33;8.07;;;3.73;;
41275;SDS011;27010;47.718;12.912;2023-02-28T07:23:36;12.63;;;3.77;;
41275;SDS011;27010;47.718;12.912;2023-02-28T07:26:43;6.07;;;3.80;;
41275;SDS011;27010;47.718;12.912;2023-02-28T07:29:45;5.63;;;3.83;;
41275;SDS011;27010;47.718;12.912;2023-02-28T07:32:48;6.13;;;4.00;;
41275;SDS011;27010;47.718;12.912;2023-02-28T07:35:51;7.40;;;3.67;;
41275;SDS011;27010;47.718;12.912;2023-02-28T07:38:53;5.00;;;3.50;;
41275;SDS011;27010;47.718;12.912;2023-02-28T07:41:55;9.90;;;4.20;;
41275;SDS011;27010;47.718;12.912;2023-02-28T07:44:56;5.50;;;3.70;;
41275;SDS011;27010;47.718;12.912;2023-02-28T07:47:59;8.10;;;4.70;;
41275;SDS011;27010;47.718;12.912;2023-02-28T07:51:01;5.33;;;3.97;;
41275;SDS011;27010;47.718;12.912;2023-02-28T07:54:04;9.47;;;5.00;;
41275;SDS011;27010;47.718;12.912;2023-02-28T07:57:06;7.77;;;5.27;;
41275;SDS011;27010;47.718;12.912;2023-02-28T08:00:09;6.50;;;5.03;;
41275;SDS011;27010;47.718;12.912;2023-02-28T08:03:17;8.37;;;5.07;;
41275;SDS011;27010;47.718;12.912;2023-02-28T08:06:21;5.90;;;3.83;;
41275;SDS011;27010;47.718;12.912;2023-02-28T08:09:24;6.20;;;4.07;;
41275;SDS011;27010;47.718;12.912;2023-02-28T08:12:26;5.60;;;3.63;;
41275;SDS011;27010;47.718;12.912;2023-02-28T08:15:28;4.30;;;3.47;;
41275;SDS011;27010;47.718;12.912;2023-02-28T08:18:30;5.03;;;3.80;;
41275;SDS011;27010;47.718;12.912;2023-02-28T08:21:34;6.07;;;4.17;;
41275;SDS011;27010;47.718;12.912;2023-02-28T08:24:37;6.93;;;4.40;;
41275;SDS011;27010;47.718;12.912;2023-02-28T08:27:39;6.27;;;3.70;;
41275;SDS011;27010;47.718;12.912;2023-02-28T08:30:41;5.97;;;4.30;;
41275;SDS011;27010;47.718;12.912;2023-02-28T08:33:44;8.30;;;6.30;;
41275;SDS011;27010;47.718;12.912;2023-02-28T08:36:46;8.33;;;5.30;;
41275;SDS011;27010;47.718;12.912;2023-02-28T08:39:48;8.13;;;5.60;;
41275;SDS011;27010;47.718;12.912;2023-02-28T08:42:50;6.97;;;5.27;;
41275;SDS011;27010;47.718;12.912;2023-02-28T08:45:53;6.80;;;5.33;;
41275;SDS011;27010;47.718;12.912;2023-02-28T08:48:56;7.67;;;5.27;;
41275;SDS011;27010;47.718;12.912;2023-02-28T08:52:03;8.83;;;5.33;;
41275;SDS011;27010;47.718;12.912;2023-02-28T08:55:05;8.40;;;5.77;;
41275;SDS011;27010;47.718;12.912;2023-02-28T08:58:09;8.93;;;6.07;;
41275;SDS011;27010;47.718;12.912;2023-02-28T09:01:16;9.17;;;5.80;;
41275;SDS011;27010;47.718;12.912;2023-02-28T09:04:21;8.80;;;6.23;;
41275;SDS011;27010;47.718;12.912;2023-02-28T09:07:25;11.00;;;5.77;;
41275;SDS011;27010;47.718;12.912;2023-02-28T09:10:28;9.40;;;6.00;;
41275;SDS011;27010;47.718;12.912;2023-02-28T09:13:30;7.47;;;5.93;;
41275;SDS011;27010;47.718;12.912;2023-02-28T09:16:34;7.60;;;5.63;;
41275;SDS011;27010;47.718;12.912;2023-02-28T09:19:37;8.73;;;6.17;;
41275;SDS011;27010;47.718;12.912;2023-02-28T09:22:40;9.90;;;5.97;;
41275;SDS011;27010;47.718;12.912;2023-02-28T09:25:46;10.90;;;6.23;;
41275;SDS011;27010;47.718;12.912;2023-02-28T09:28:49;9.40;;;6.77;;
41275;SDS011;27010;47.718;12.912;2023-02-28T09:31:53;7.50;;;6.17;;
41275;SDS011;27010;47.718;12.912;2023-02-28T09:34:56;9.97;;;6.63;;
41275;SDS011;27010;47.718;12.912;2023-02-28T09:37:58;10.90;;;6.63;;
41275;SDS011;27010;47.718;12.912;2023-02-28T09:41:01;9.33;;;6.50;;
41275;SDS011;27010;47.718;12.912;2023-02-28T09:44:05;9.53;;;6.23;;
41275;SDS011;27010;47.718;12.912;2023-02-28T09:51:02;9.93;;;7.23;;
41275;SDS011;27010;47.718;12.912;2023-02-28T09:54:08;8.40;;;6.73;;
41275;SDS011;27010;47.718;12.912;2023-02-28T09:57:35;10.57;;;7.03;;
41275;SDS011;27010;47.718;12.912;2023-02-28T10:00:41;8.10;;;6.50;;
41275;SDS011;27010;47.718;12.912;2023-02-28T10:03:47;9.73;;;7.30;;
41275;SDS011;27010;47.718;12.912;2023-02-28T10:07:15;11.43;;;6.80;;
41275;SDS011;27010;47.718;12.912;2023-02-28T10:14:00;7.73;;;6.13;;
41275;SDS011;27010;47.718;12.912;2023-02-28T10:17:05;12.40;;;8.10;;
41275;SDS011;27010;47.718;12.912;2023-02-28T10:20:12;10.73;;;7.63;;
41275;SDS011;27010;47.718;12.912;2023-02-28T10:23:21;8.67;;;6.37;;
41275;SDS011;27010;47.718;12.912;2023-02-28T10:26:31;11.17;;;8.33;;
41275;SDS011;27010;47.718;12.912;2023-02-28T10:29:34;10.47;;;6.93;;
41275;SDS011;27010;47.718;12.912;2023-02-28T10:32:38;11.10;;;6.93;;
41275;SDS011;27010;47.718;12.912;2023-02-28T10:35:40;12.03;;;7.37;;
41275;SDS011;27010;47.718;12.912;2023-02-28T10:38:42;11.37;;;7.50;;
41275;SDS011;27010;47.718;12.912;2023-02-28T10:41:46;9.20;;;7.13;;
41275;SDS011;27010;47.718;12.912;2023-02-28T10:44:48;10.53;;;8.10;;
41275;SDS011;27010;47.718;12.912;2023-02-28T10:47:52;14.43;;;8.47;;
41275;SDS011;27010;47.718;12.912;2023-02-28T10:50:58;13.00;;;8.33;;
41275;SDS011;27010;47.718;12.912;2023-02-28T10:54:01;16.37;;;9.07;;
41275;SDS011;27010;47.718;12.912;2023-02-28T10:57:23;12.17;;;9.20;;
41275;SDS011;27010;47.718;12.912;2023-02-28T11:00:25;13.17;;;8.80;;
41275;SDS011;27010;47.718;12.912;2023-02-28T11:03:35;14.67;;;9.03;;
41275;SDS011;27010;47.718;12.912;2023-02-28T11:06:37;12.83;;;9.70;;
41275;SDS011;27010;47.718;12.912;2023-02-28T11:09:40;15.30;;;9.80;;
41275;SDS011;27010;47.718;12.912;2023-02-28T11:12:44;15.47;;;10.23;;
41275;SDS011;27010;47.718;12.912;2023-02-28T11:15:54;12.43;;;8.80;;
41275;SDS011;27010;47.718;12.912;2023-02-28T11:18:57;11.80;;;8.83;;
41275;SDS011;27010;47.718;12.912;2023-02-28T11:22:02;12.80;;;9.27;;
41275;SDS011;27010;47.718;12.912;2023-02-28T11:25:48;16.53;;;9.27;;
41275;SDS011;27010;47.718;12.912;2023-02-28T11:28:41;16.97;;;10.30;;
41275;SDS011;27010;47.718;12.912;2023-02-28T11:31:43;13.77;;;10.40;;
41275;SDS011;27010;47.718;12.912;2023-02-28T11:34:47;13.27;;;10.30;;
41275;SDS011;27010;47.718;12.912;2023-02-28T11:38:11;16.20;;;10.23;;
41275;SDS011;27010;47.718;12.912;2023-02-28T11:48:22;13.47;;;9.30;;
41275;SDS011;27010;47.718;12.912;2023-02-28T11:51:32;15.93;;;9.67;;
41275;SDS011;27010;47.718;12.912;2023-02-28T12:01:11;14.10;;;11.00;;
41275;SDS011;27010;47.718;12.912;2023-02-28T12:10:37;14.33;;;10.63;;
41275;SDS011;27010;47.718;12.912;2023-02-28T12:27:15;16.77;;;11.13;;
41275;SDS011;27010;47.718;12.912;2023-02-28T12:30:24;15.87;;;11.47;;
41275;SDS011;27010;47.718;12.912;2023-02-28T12:33:31;15.57;;;11.40;;
41275;SDS011;27010;47.718;12.912;2023-02-28T12:36:36;17.53;;;12.03;;
41275;SDS011;27010;47.718;12.912;2023-02-28T12:39:44;15.70;;;11.03;;
41275;SDS011;27010;47.718;12.912;2023-02-28T12:42:56;18.03;;;11.30;;
41275;SDS011;27010;47.718;12.912;2023-02-28T12:46:10;16.03;;;11.67;;
41275;SDS011;27010;47.718;12.912;2023-02-28T12:49:19;16.00;;;10.87;;
41275;SDS011;27010;47.718;12.912;2023-02-28T12:52:27;16.40;;;11.93;;
41275;SDS011;27010;47.718;12.912;2023-02-28T12:55:54;14.17;;;11.17;;
41275;SDS011;27010;47.718;12.912;2023-02-28T13:09:15;17.40;;;11.53;;
41275;SDS011;27010;47.718;12.912;2023-02-28T13:12:18;17.47;;;11.57;;
41275;SDS011;27010;47.718;12.912;2023-02-28T13:15:25;19.90;;;12.50;;
41275;SDS011;27010;47.718;12.912;2023-02-28T13:18:39;20.37;;;12.53;;
41275;SDS011;27010;47.718;12.912;2023-02-28T13:21:45;17.87;;;12.17;;
41275;SDS011;27010;47.718;12.912;2023-02-28T13:24:55;16.47;;;11.67;;
41275;SDS011;27010;47.718;12.912;2023-02-28T13:27:58;18.13;;;12.67;;
41275;SDS011;27010;47.718;12.912;2023-02-28T13:31:03;19.53;;;12.53;;
41275;SDS011;27010;47.718;12.912;2023-02-28T13:34:12;17.03;;;12.00;;
41275;SDS011;27010;47.718;12.912;2023-02-28T13:40:28;18.93;;;12.83;;
41275;SDS011;27010;47.718;12.912;2023-02-28T13:54:15;18.20;;;12.70;;
41275;SDS011;27010;47.718;12.912;2023-02-28T14:08:06;16.57;;;12.13;;
41275;SDS011;27010;47.718;12.912;2023-02-28T14:11:24;15.80;;;11.53;;
41275;SDS011;27010;47.718;12.912;2023-02-28T14:17:37;14.43;;;11.37;;
41275;SDS011;27010;47.718;12.912;2023-02-28T14:20:40;14.00;;;10.80;;
41275;SDS011;27010;47.718;12.912;2023-02-28T14:30:11;17.43;;;11.40;;
41275;SDS011;27010;47.718;12.912;2023-02-28T14:36:37;19.93;;;13.87;;
41275;SDS011;27010;47.718;12.912;2023-02-28T14:39:42;19.10;;;12.73;;
41275;SDS011;27010;47.718;12.912;2023-02-28T14:42:55;18.10;;;13.37;;
41275;SDS011;27010;47.718;12.912;2023-02-28T14:46:02;19.00;;;13.20;;
41275;SDS011;27010;47.718;12.912;2023-02-28T14:49:07;18.23;;;12.90;;
41275;SDS011;27010;47.718;12.912;2023-02-28T14:52:21;16.17;;;11.93;;
41275;SDS011;27010;47.718;12.912;2023-02-28T14:55:30;15.63;;;12.30;;
41275;SDS011;27010;47.718;12.912;2023-02-28T14:58:34;16.87;;;12.10;;
41275;SDS011;27010;47.718;12.912;2023-02-28T15:01:36;21.50;;;12.70;;
41275;SDS011;27010;47.718;12.912;2023-02-28T15:04:38;23.07;;;13.97;;
41275;SDS011;27010;47.718;12.912;2023-02-28T15:07:44;19.33;;;13.83;;
41275;SDS011;27010;47.718;12.912;2023-02-28T15:11:11;21.13;;;13.00;;
41275;SDS011;27010;47.718;12.912;2023-02-28T15:14:13;16.00;;;11.83;;
41275;SDS011;27010;47.718;12.912;2023-02-28T15:17:21;18.57;;;13.33;;
41275;SDS011;27010;47.718;12.912;2023-02-28T15:20:25;20.20;;;13.23;;
41275;SDS011;27010;47.718;12.912;2023-02-28T15:23:28;19.80;;;13.57;;
41275;SDS011;27010;47.718;12.912;2023-02-28T15:26:32;18.10;;;13.53;;
41275;SDS011;27010;47.718;12.912;2023-02-28T15:29:59;18.43;;;13.13;;
41275;SDS011;27010;47.718;12.912;2023-02-28T15:33:02;18.43;;;13.57;;
41275;SDS011;27010;47.718;12.912;2023-02-28T15:36:17;18.73;;;12.77;;
41275;SDS011;27010;47.718;12.912;2023-02-28T15:39:24;18.77;;;12.50;;
41275;SDS011;27010;47.718;12.912;2023-02-28T15:42:29;18.60;;;13.57;;
41275;SDS011;27010;47.718;12.912;2023-02-28T15:48:52;18.47;;;14.07;;
41275;SDS011;27010;47.718;12.912;2023-02-28T15:51:56;22.83;;;13.83;;
41275;SDS011;27010;47.718;12.912;2023-02-28T15:55:07;20.50;;;14.33;;
41275;SDS011;27010;47.718;12.912;2023-02-28T15:58:26;20.83;;;14.00;;
41275;SDS011;27010;47.718;12.912;2023-02-28T16:01:32;24.73;;;14.73;;
41275;SDS011;27010;47.718;12.912;2023-02-28T16:04:36;18.90;;;13.23;;
41275;SDS011;27010;47.718;12.912;2023-02-28T16:07:40;21.87;;;14.27;;
41275;SDS011;27010;47.718;12.912;2023-02-28T16:10:44;23.03;;;13.50;;
41275;SDS011;27010;47.718;12.912;2023-02-28T16:13:46;21.13;;;13.33;;
41275;SDS011;27010;47.718;12.912;2023-02-28T16:16:49;20.70;;;15.03;;
41275;SDS011;27010;47.718;12.912;2023-02-28T16:19:58;22.27;;;14.30;;
41275;SDS011;27010;47.718;12.912;2023-02-28T16:23:00;22.13;;;14.97;;
41275;SDS011;27010;47.718;12.912;2023-02-28T16:26:04;21.87;;;13.87;;
41275;SDS011;27010;47.718;12.912;2023-02-28T16:29:08;18.20;;;14.10;;
41275;SDS011;27010;47.718;12.912;2023-02-28T16:32:12;22.60;;;13.33;;
41275;SDS011;27010;47.718;12.912;2023-02-28T16:35:16;18.77;;;12.50;;
41275;SDS011;27010;47.718;12.912;2023-02-28T16:38:19;22.57;;;14.33;;
41275;SDS011;27010;47.718;12.912;2023-02-28T16:41:22;19.67;;;14.17;;
41275;SDS011;27010;47.718;12.912;2023-02-28T16:44:32;19.77;;;14.07;;
41275;SDS011;27010;47.718;12.912;2023-02-28T16:47:54;21.60;;;14.13;;
41275;SDS011;27010;47.718;12.912;2023-02-28T16:50:56;20.20;;;13.83;;
41275;SDS011;27010;47.718;12.912;2023-02-28T16:53:59;19.70;;;14.03;;
41275;SDS011;27010;47.718;12.912;2023-02-28T16:57:01;19.73;;;13.53;;
41275;SDS011;27010;47.718;12.912;2023-02-28T17:00:04;21.93;;;14.77;;
41275;SDS011;27010;47.718;12.912;2023-02-28T17:03:13;20.83;;;13.97;;
41275;SDS011;27010;47.718;12.912;2023-02-28T17:06:33;19.47;;;13.73;;
41275;SDS011;27010;47.718;12.912;2023-02-28T17:09:35;22.40;;;15.07;;
41275;SDS011;27010;47.718;12.912;2023-02-28T17:12:43;23.67;;;16.10;;
41275;SDS011;27010;47.718;12.912;2023-02-28T17:15:46;23.37;;;15.03;;
41275;SDS011;27010;47.718;12.912;2023-02-28T17:18:49;21.50;;;15.13;;
41275;SDS011;27010;47.718;12.912;2023-02-28T17:21:51;21.90;;;15.43;;
41275;SDS011;27010;47.718;12.912;2023-02-28T17:24:54;21.10;;;14.63;;
41275;SDS011;27010;47.718;12.912;2023-02-28T17:28:00;22.83;;;15.63;;
41275;SDS011;27010;47.718;12.912;2023-02-28T17:31:02;26.37;;;14.87;;
41275;SDS011;27010;47.718;12.912;2023-02-28T17:34:04;20.10;;;14.47;;
41275;SDS011;27010;47.718;12.912;2023-02-28T17:37:08;21.33;;;14.50;;
41275;SDS011;27010;47.718;12.912;2023-02-28T17:40:13;17.97;;;13.10;;
41275;SDS011;27010;47.718;12.912;2023-02-28T17:43:19;24.10;;;13.70;;
41275;SDS011;27010;47.718;12.912;2023-02-28T17:46:22;20.90;;;14.03;;
41275;SDS011;27010;47.718;12.912;2023-02-28T17:49:26;22.27;;;15.03;;
41275;SDS011;27010;47.718;12.912;2023-02-28T17:52:28;21.57;;;14.90;;
41275;SDS011;27010;47.718;12.912;2023-02-28T17:55:30;22.83;;;14.60;;
41275;SDS011;27010;47.718;12.912;2023-02-28T17:58:32;23.83;;;16.03;;
41275;SDS011;27010;47.718;12.912;2023-02-28T18:01:34;21.77;;;14.27;;
41275;SDS011;27010;47.718;12.912;2023-02-28T18:04:37;21.07;;;14.50;;
41275;SDS011;27010;47.718;12.912;2023-02-28T18:07:39;23.03;;;15.43;;
41275;SDS011;27010;47.718;12.912;2023-02-28T18:10:41;21.70;;;14.90;;
41275;SDS011;27010;47.718;12.912;2023-02-28T18:13:47;18.50;;;13.47;;
41275;SDS011;27010;47.718;12.912;2023-02-28T18:16:51;25.73;;;15.63;;
41275;SDS011;27010;47.718;12.912;2023-02-28T18:19:54;20.27;;;13.90;;
41275;SDS011;27010;47.718;12.912;2023-02-28T18:22:56;23.87;;;14.80;;
41275;SDS011;27010;47.718;12.912;2023-02-28T18:25:58;23.00;;;14.37;;
41275;SDS011;27010;47.718;12.912;2023-02-28T18:29:00;20.57;;;14.03;;
41275;SDS011;27010;47.718;12.912;2023-02-28T18:32:02;22.80;;;14.40;;
41275;SDS011;27010;47.718;12.912;2023-02-28T18:35:05;20.10;;;14.00;;
41275;SDS011;27010;47.718;12.912;2023-02-28T18:38:10;23.97;;;15.30;;
41275;SDS011;27010;47.718;12.912;2023-02-28T18:41:16;28.13;;;17.00;;
41275;SDS011;27010;47.718;12.912;2023-02-28T18:44:22;23.20;;;15.27;;
41275;SDS011;27010;47.718;12.912;2023-02-28T18:47:24;22.60;;;15.33;;
41275;SDS011;27010;47.718;12.912;2023-02-28T18:50:26;23.07;;;16.00;;
41275;SDS011;27010;47.718;12.912;2023-02-28T18:53:30;22.30;;;15.07;;
41275;SDS011;27010;47.718;12.912;2023-02-28T18:56:32;23.57;;;15.37;;
41275;SDS011;27010;47.718;12.912;2023-02-28T18:59:34;26.53;;;15.33;;
41275;SDS011;27010;47.718;12.912;2023-02-28T19:02:36;23.03;;;14.57;;
41275;SDS011;27010;47.718;12.912;2023-02-28T19:05:39;20.90;;;14.90;;
41275;SDS011;27010;47.718;12.912;2023-02-28T19:08:40;23.23;;;15.53;;
41275;SDS011;27010;47.718;12.912;2023-02-28T19:11:42;21.13;;;15.10;;
41275;SDS011;27010;47.718;12.912;2023-02-28T19:14:45;24.43;;;15.67;;
41275;SDS011;27010;47.718;12.912;2023-02-28T19:17:48;20.57;;;14.63;;
41275;SDS011;27010;47.718;12.912;2023-02-28T19:20:49;22.83;;;15.00;;
41275;SDS011;27010;47.718;12.912;2023-02-28T19:23:52;22.73;;;15.90;;
41275;SDS011;27010;47.718;12.912;2023-02-28T19:26:54;23.43;;;15.37;;
41275;SDS011;27010;47.718;12.912;2023-02-28T19:29:56;24.23;;;14.87;;
41275;SDS011;27010;47.718;12.912;2023-02-28T19:33:00;23.80;;;14.93;;
41275;SDS011;27010;47.718;12.912;2023-02-28T19:36:02;25.40;;;16.67;;
41275;SDS011;27010;47.718;12.912;2023-02-28T19:39:04;22.67;;;15.67;;
41275;SDS011;27010;47.718;12.912;2023-02-28T19:42:13;25.77;;;15.90;;
41275;SDS011;27010;47.718;12.912;2023-02-28T19:45:16;25.50;;;14.60;;
41275;SDS011;27010;47.718;12.912;2023-02-28T19:48:18;24.77;;;16.63;;
41275;SDS011;27010;47.718;12.912;2023-02-28T19:51:25;23.00;;;15.23;;
41275;SDS011;27010;47.718;12.912;2023-02-28T19:54:28;25.37;;;16.70;;
41275;SDS011;27010;47.718;12.912;2023-02-28T19:57:30;24.50;;;16.63;;
41275;SDS011;27010;47.718;12.912;2023-02-28T20:00:32;29.83;;;15.17;;
41275;SDS011;27010;47.718;12.912;2023-02-28T20:03:34;24.30;;;15.87;;
41275;SDS011;27010;47.718;12.912;2023-02-28T20:06:36;22.60;;;15.33;;
41275;SDS011;27010;47.718;12.912;2023-02-28T20:09:39;25.17;;;15.50;;
41275;SDS011;27010;47.718;12.912;2023-02-28T20:12:41;25.83;;;15.20;;
41275;SDS011;27010;47.718;12.912;2023-02-28T20:15:43;25.43;;;15.53;;
41275;SDS011;27010;47.718;12.912;2023-02-28T20:18:48;23.70;;;15.83;;
41275;SDS011;27010;47.718;12.912;2023-02-28T20:21:51;22.33;;;14.97;;
41275;SDS011;27010;47.718;12.912;2023-02-28T20:24:54;25.67;;;15.67;;